DW0749 Maple Bay BC CA current weather conditions

sailwx.info

Wind from 326

Air temperature 13.3° C
Dewpoint 9.6° C

Last reported at 2019-Jun-20 16:09 UTC.
Time now 2019-Jun-20 17:05 UTC

Location: N 48°48' W 123°38'.
View on Google Maps.

See reports from other nearby stations

  
Tides and Currents Weather Stations Pressure Air Temp Water Temp Dewpoint Dewpoint Depression Visibility Wind Speed Wind Dir Waves Ship Positions
date/time (UTC)wind fromknots sea level pressurealtimeterstation pressurevisibilityair tempwater tempwave heightnotes
2019-Jun-20 16:09 326 13.3
2019-Jun-20 16:04 320 13.3
2019-Jun-20 15:59 294 13.3
2019-Jun-20 15:54 227 12.8
2019-Jun-20 15:49 136 12.2
2019-Jun-20 15:44 338 13.3
2019-Jun-20 15:39 334 12.2
2019-Jun-20 15:34 334 12.8
2019-Jun-20 15:29 334 11.7
2019-Jun-20 15:24 334 11.1
2019-Jun-20 15:19 334 11.7
2019-Jun-20 15:14 334 11.1
2019-Jun-20 15:09 334 11.1
2019-Jun-20 15:04 329 11.1
2019-Jun-20 14:59 313 11.1
2019-Jun-20 14:54 313 10.6
2019-Jun-20 14:49 313 10.6
2019-Jun-20 14:44 313 10.6
2019-Jun-20 14:39 313 10.6
2019-Jun-20 14:34 313 10.0
2019-Jun-20 14:29 313 9.4
2019-Jun-20 14:24 313 9.4
2019-Jun-20 14:19 313 9.4
2019-Jun-20 14:14 313 9.4
2019-Jun-20 14:09 313 9.4
2019-Jun-20 14:04 313 8.9
2019-Jun-20 13:59 313 8.9
2019-Jun-20 13:54 313 8.9
2019-Jun-20 13:49 313 8.9
2019-Jun-20 13:44 313 8.9
2019-Jun-20 12:39 190 8.3
2019-Jun-20 12:34 190 8.3
2019-Jun-20 12:29 190 8.3
2019-Jun-20 12:24 190 8.3
2019-Jun-20 12:19 190 8.3
2019-Jun-20 12:14 190 8.3
2019-Jun-20 12:09 190 8.3
2019-Jun-20 12:04 190 8.3
2019-Jun-20 11:59 190 8.3
2019-Jun-20 11:54 190 8.3
2019-Jun-20 11:49 190 8.3
2019-Jun-20 11:44 190 8.3
2019-Jun-20 11:39 190 8.3
2019-Jun-20 11:34 190 8.3
2019-Jun-20 11:29 190 8.3
2019-Jun-20 11:24 190 8.3
2019-Jun-20 11:19 190 8.3
2019-Jun-20 11:14 190 8.3
2019-Jun-20 11:09 190 8.3
2019-Jun-20 11:04 190 8.3
2019-Jun-20 10:59 190 8.3
2019-Jun-20 10:54 190 8.3
2019-Jun-20 10:49 190 8.3
2019-Jun-20 10:44 190 8.3
2019-Jun-20 10:39 190 8.3
2019-Jun-20 10:34 190 8.3
2019-Jun-20 10:29 190 8.3
2019-Jun-20 10:24 190 8.3
2019-Jun-20 10:19 190 8.3
2019-Jun-20 10:14 190 8.3
2019-Jun-20 10:09 190 8.3
2019-Jun-20 10:04 190 8.3
2019-Jun-20 09:59 190 8.3
2019-Jun-20 09:54 190 8.3
2019-Jun-20 09:49 190 8.3
2019-Jun-20 09:44 190 8.3
2019-Jun-20 09:39 190 8.9
2019-Jun-20 09:34 190 8.9
2019-Jun-20 09:29 190 8.9
2019-Jun-20 09:24 190 8.9
2019-Jun-20 09:19 190 8.9
2019-Jun-20 09:14 190 8.9
2019-Jun-20 09:09 190 8.9
2019-Jun-20 09:04 190 9.4
2019-Jun-20 08:59 190 9.4
2019-Jun-20 08:54 190 9.4
2019-Jun-20 08:49 190 9.4
2019-Jun-20 08:44 190 9.4
2019-Jun-20 08:39 190 9.4
2019-Jun-20 08:34 190 9.4
2019-Jun-20 08:29 190 9.4
2019-Jun-20 08:24 190 9.4
2019-Jun-20 08:19 190 9.4
2019-Jun-20 08:14 190 9.4
2019-Jun-20 08:09 190 9.4
2019-Jun-20 08:04 190 9.4
2019-Jun-20 07:59 190 9.4
2019-Jun-20 07:54 190 9.4
2019-Jun-20 07:49 190 9.4
2019-Jun-20 07:44 190 9.4
2019-Jun-20 07:39 190 9.4
2019-Jun-20 07:34 190 9.4
2019-Jun-20 07:29 190 9.4
2019-Jun-20 07:24 190 9.4
2019-Jun-20 07:19 190 9.4
2019-Jun-20 07:14 190 9.4
2019-Jun-20 07:09 190 9.4
2019-Jun-20 07:04 190 9.4
2019-Jun-20 06:59 190 9.4
2019-Jun-20 06:54 190 9.4
2019-Jun-20 06:49 190 10.0
2019-Jun-20 06:44 190 10.0
2019-Jun-20 06:39 190 10.0
2019-Jun-20 06:34 190 10.0
2019-Jun-20 06:29 136 10.0
2019-Jun-20 06:24 136 10.0
2019-Jun-20 06:19 125 10.0
2019-Jun-20 06:14 125 10.0
2019-Jun-20 06:09 125 10.0
2019-Jun-20 06:04 125 10.0
2019-Jun-20 05:59 124 10.0
2019-Jun-20 05:54 124 10.0
2019-Jun-20 05:49 055 10.0
2019-Jun-20 05:44 061 10.0
2019-Jun-20 05:39 061 10.0
2019-Jun-20 05:34 061 10.0
2019-Jun-20 05:29 061 10.0
2019-Jun-20 05:24 061 10.0
2019-Jun-20 05:19 061 10.0
2019-Jun-20 05:14 061 10.0
2019-Jun-20 05:09 061 10.0
2019-Jun-20 05:04 061 10.0
2019-Jun-20 04:59 061 10.0
2019-Jun-20 04:54 061 10.0
2019-Jun-20 04:49 061 10.0
2019-Jun-20 04:44 061 10.0
2019-Jun-20 04:39 061 10.0
2019-Jun-20 04:34 061 10.0
2019-Jun-20 04:29 061 10.0
2019-Jun-20 04:24 061 10.0
2019-Jun-20 04:19 061 10.0
2019-Jun-20 04:14 061 10.0
2019-Jun-20 04:09 061 10.0
2019-Jun-20 04:04 061 10.0
2019-Jun-20 03:59 061 10.0
2019-Jun-20 03:54 061 10.0
2019-Jun-20 03:49 061 10.0
2019-Jun-20 03:44 061 10.0
2019-Jun-20 03:39 061 10.0
2019-Jun-20 03:34 061 10.0
2019-Jun-20 03:29 061 10.0
2019-Jun-20 03:24 061 10.0
2019-Jun-20 03:19 061 10.0
2019-Jun-20 03:14 061 10.0
2019-Jun-20 03:09 061 10.0
2019-Jun-20 03:04 061 10.0
2019-Jun-20 02:59 061 10.0
2019-Jun-20 02:54 061 10.0
2019-Jun-20 02:49 061 10.0
2019-Jun-20 02:44 061 10.0
2019-Jun-20 02:39 061 10.0
2019-Jun-20 02:34 061 10.0
2019-Jun-20 02:29 061 10.0
2019-Jun-20 02:24 061 10.0
2019-Jun-20 02:19 061 10.0
2019-Jun-20 02:14 061 10.0
2019-Jun-20 02:09 061 10.0
2019-Jun-20 02:04 061 10.0
2019-Jun-20 01:59 061 10.0
2019-Jun-20 01:54 061 10.6
2019-Jun-20 01:49 061 10.6
2019-Jun-20 01:44 061 10.6
2019-Jun-20 01:39 061 10.6
2019-Jun-20 01:34 061 10.6
2019-Jun-20 01:29 061 10.6
2019-Jun-20 01:24 061 10.6
2019-Jun-20 01:19 061 10.6
2019-Jun-20 01:14 061 10.6
2019-Jun-20 01:09 061 10.6
2019-Jun-20 01:04 061 10.6
2019-Jun-20 00:59 061 10.6
2019-Jun-20 00:54 061 11.1
2019-Jun-20 00:49 061 11.1
2019-Jun-20 00:44 061 11.1
2019-Jun-20 00:39 061 11.1
2019-Jun-20 00:34 061 11.7
2019-Jun-20 00:29 060 12.2
2019-Jun-20 00:24 060 12.2
2019-Jun-20 00:19 060 12.2
2019-Jun-20 00:14 061 12.2
2019-Jun-20 00:09 061 12.2
2019-Jun-20 00:04 061 12.2
2019-Jun-19 23:59 061 11.7
2019-Jun-19 23:54 061 12.2
2019-Jun-19 23:49 060 12.2
2019-Jun-19 23:44 184 12.2
2019-Jun-19 23:39 268 13.3
2019-Jun-19 23:34 328 0 gusting 6 13.9
2019-Jun-19 23:29 014 14.4
2019-Jun-19 23:24 039 14.4
2019-Jun-19 23:19 067 14.4
2019-Jun-19 23:14 059 0 gusting 6 15.0
2019-Jun-19 23:09 054 0 gusting 5 15.0
2019-Jun-19 23:04 036 15.6
2019-Jun-19 22:59 053 0 gusting 4 15.6
2019-Jun-19 22:54 054 0 gusting 4 15.6
2019-Jun-19 22:49 341 15.6
2019-Jun-19 22:44 081 15.0
2019-Jun-19 22:39 026 15.0
2019-Jun-19 22:34 032 14.4
2019-Jun-19 22:29 032 14.4
2019-Jun-19 22:24 034 14.4
2019-Jun-19 22:19 072 13.9
2019-Jun-19 22:14 064 13.3
2019-Jun-19 22:09 064 13.3
2019-Jun-19 22:04 115 12.8
2019-Jun-19 21:59 119 12.8
2019-Jun-19 21:54 110 12.8
2019-Jun-19 21:49 110 12.8
2019-Jun-19 21:44 110 12.8
2019-Jun-19 21:39 110 12.2
2019-Jun-19 21:34 110 11.7
2019-Jun-19 21:29 110 11.7
2019-Jun-19 21:24 148 11.7
2019-Jun-19 21:19 106 12.2
2019-Jun-19 21:14 019 13.9
2019-Jun-19 21:09 082 16.1
2019-Jun-19 21:04 034 16.7
2019-Jun-19 20:59 035 16.7
2019-Jun-19 20:54 021 0 gusting 5 16.7
2019-Jun-19 20:49 004 0 gusting 6 16.7
2019-Jun-19 20:44 063 0 gusting 6 16.7
2019-Jun-19 20:39 050 4 gusting 10 16.7
2019-Jun-19 20:34 061 1 gusting 8 16.7
2019-Jun-19 20:29 032 2 gusting 8 16.7
2019-Jun-19 20:24 051 0 gusting 8 17.8
2019-Jun-19 20:19 071 0 gusting 6 16.7
2019-Jun-19 20:14 055 0 gusting 6 16.7
2019-Jun-19 20:09 032 0 gusting 10 16.7
2019-Jun-19 20:04 064 1 gusting 10 17.2
2019-Jun-19 19:59 051 17.2
2019-Jun-19 19:54 049 1 gusting 10 16.7
2019-Jun-19 19:49 072 2 gusting 10 16.7
2019-Jun-19 19:44 041 0 gusting 8 16.7
2019-Jun-19 19:39 061 2 gusting 10 16.1
2019-Jun-19 19:34 058 0 gusting 4 17.2
2019-Jun-19 19:29 290 0 gusting 2 17.2
2019-Jun-19 19:24 302 0 gusting 4 17.2
2019-Jun-19 19:19 216 17.8
2019-Jun-19 19:14 302 17.8
2019-Jun-19 19:09 073 17.2
2019-Jun-19 19:04 001 18.3
2019-Jun-19 18:59 333 0 gusting 2 18.3
2019-Jun-19 18:54 330 19.4
2019-Jun-19 18:49 304 0 gusting 2 18.9
2019-Jun-19 18:44 287 18.9
2019-Jun-19 18:39 288 0 gusting 2 18.3
2019-Jun-19 18:34 315 18.9
2019-Jun-19 18:29 330 18.3
2019-Jun-19 18:24 328 17.8
2019-Jun-19 18:19 302 18.3
2019-Jun-19 18:14 291 18.3
2019-Jun-19 18:09 070 0 gusting 2 17.8
2019-Jun-19 18:04 329 17.8
2019-Jun-19 17:54 024 17.2
2019-Jun-19 17:49 026 17.2
2019-Jun-19 17:44 049 16.1
2019-Jun-19 17:39 038 17.2
2019-Jun-19 17:34 347 16.7
2019-Jun-19 17:29 349 16.1
2019-Jun-19 17:24 16.1
2019-Jun-19 17:19 16.1
2019-Jun-19 17:14 15.6
2019-Jun-19 17:09 042 16.1
2019-Jun-19 17:04 068 16.1
2019-Jun-19 16:59 290 16.7
2019-Jun-19 16:54 305 16.7
2019-Jun-19 16:49 309 16.1
2019-Jun-19 16:44 309 16.1
2019-Jun-19 16:39 215 15.6
2019-Jun-19 16:34 216 16.1
2019-Jun-19 16:29 236 15.6
2019-Jun-19 16:24 238 15.0
2019-Jun-19 16:19 11.1
2019-Jun-19 14:09 234 11.1
2019-Jun-19 14:04 234 11.1
2019-Jun-19 13:59 234 11.1
2019-Jun-19 13:54 234 11.1
2019-Jun-19 13:49 234 11.1
2019-Jun-19 13:44 234 11.1
2019-Jun-19 13:39 234 11.1
2019-Jun-19 13:34 234 10.6
2019-Jun-19 13:29 234 10.6
2019-Jun-19 13:24 234 10.6
2019-Jun-19 13:19 234 10.6
2019-Jun-19 13:14 234 10.6
2019-Jun-19 13:09 234 10.6
2019-Jun-19 13:04 234 10.0
2019-Jun-19 12:59 234 10.0
2019-Jun-19 12:54 234 10.0
2019-Jun-19 12:49 234 10.0
2019-Jun-19 12:44 234 10.0
2019-Jun-19 12:39 234 10.0
2019-Jun-19 12:34 234 10.0
2019-Jun-19 12:29 234 10.0
2019-Jun-19 12:24 234 10.0
2019-Jun-19 12:19 234 10.6
2019-Jun-19 12:14 234 10.6
2019-Jun-19 12:09 234 10.6
2019-Jun-19 12:04 234 10.6
2019-Jun-19 11:59 234 10.6
2019-Jun-19 11:54 234 10.6
2019-Jun-19 11:49 291 10.6
2019-Jun-19 11:44 291 10.6
2019-Jun-19 11:39 291 10.6
2019-Jun-19 11:34 291 10.6
2019-Jun-19 11:29 291 10.6
2019-Jun-19 11:24 291 10.6
2019-Jun-19 11:19 291 10.6
2019-Jun-19 11:14 291 10.6
2019-Jun-19 11:09 291 10.6
2019-Jun-19 11:04 291 10.6
2019-Jun-19 10:59 288 10.6
2019-Jun-19 10:54 269 11.1
2019-Jun-19 10:49 269 11.1
2019-Jun-19 10:44 269 11.1
2019-Jun-19 10:39 269 11.1
2019-Jun-19 10:34 269 11.1
2019-Jun-19 10:29 269 11.1
2019-Jun-19 10:24 273 11.1
2019-Jun-19 10:19 302 11.1
2019-Jun-19 10:14 302 11.1
2019-Jun-19 10:09 302 11.1
2019-Jun-19 10:04 302 11.1
2019-Jun-19 09:59 302 11.1
2019-Jun-19 09:54 302 11.1
2019-Jun-19 09:49 302 11.7
2019-Jun-19 09:44 303 11.7
2019-Jun-19 09:39 225 11.7
2019-Jun-19 09:34 196 11.7
2019-Jun-19 09:29 196 11.7
2019-Jun-19 09:24 196 11.7
2019-Jun-19 09:19 196 11.7
2019-Jun-19 09:14 196 11.7
2019-Jun-19 09:09 196 12.2
2019-Jun-19 09:04 196 12.2
2019-Jun-19 08:59 196 12.2
2019-Jun-19 08:54 196 12.2
2019-Jun-19 08:49 196 12.2
2019-Jun-19 08:44 196 12.2
2019-Jun-19 08:39 196 12.2
2019-Jun-19 08:34 196 12.2
2019-Jun-19 08:29 196 12.2
2019-Jun-19 08:24 196 12.2
2019-Jun-19 08:19 196 12.2
2019-Jun-19 08:14 196 12.2
2019-Jun-19 08:09 196 12.8
2019-Jun-19 08:04 196 12.8
2019-Jun-19 07:59 196 12.8
2019-Jun-19 07:54 196 12.8
2019-Jun-19 07:49 196 12.8
2019-Jun-19 07:44 196 13.3
2019-Jun-19 07:39 196 13.3
2019-Jun-19 07:34 192 13.3
2019-Jun-19 07:29 192 13.3
2019-Jun-19 07:24 192 13.9
2019-Jun-19 07:19 192 13.9
2019-Jun-19 07:14 188 13.9
2019-Jun-19 07:09 188 13.9
2019-Jun-19 07:04 186 13.9
2019-Jun-19 06:59 201 13.9
2019-Jun-19 06:54 202 13.9
2019-Jun-19 06:49 202 14.4
2019-Jun-19 06:44 202 14.4
2019-Jun-19 06:39 202 14.4
2019-Jun-19 06:34 202 14.4
2019-Jun-19 06:29 202 14.4
2019-Jun-19 06:24 202 14.4
2019-Jun-19 06:19 202 14.4
2019-Jun-19 06:14 202 15.0
2019-Jun-19 06:09 202 15.0
2019-Jun-19 06:04 202 15.0
2019-Jun-19 05:59 202 15.0
2019-Jun-19 05:54 207 15.0
2019-Jun-19 05:49 208 15.0
2019-Jun-19 05:44 208 15.0
2019-Jun-19 05:39 208 15.0
2019-Jun-19 05:34 208 15.0
2019-Jun-19 05:29 208 15.0
2019-Jun-19 05:24 208 15.6
2019-Jun-19 05:19 208 15.6
2019-Jun-19 05:14 208 15.6
2019-Jun-19 05:09 208 15.6
2019-Jun-19 05:04 208 15.6
2019-Jun-19 04:59 208 16.1
2019-Jun-19 04:54 208 16.1
2019-Jun-19 04:49 208 16.1
2019-Jun-19 04:44 208 16.1
2019-Jun-19 04:39 208 16.1
2019-Jun-19 04:34 208 16.7
2019-Jun-19 04:29 208 16.7
2019-Jun-19 04:24 208 16.7
2019-Jun-19 04:19 209 16.7
2019-Jun-19 04:14 208 16.7
2019-Jun-19 04:09 208 16.7
2019-Jun-19 04:04 203 17.2
2019-Jun-19 03:59 202 17.2
2019-Jun-19 03:54 202 17.2
2019-Jun-19 03:49 202 17.8
2019-Jun-19 03:44 218 17.8
2019-Jun-19 03:39 259 17.8
2019-Jun-19 03:34 264 18.3
2019-Jun-19 03:29 278 18.3
2019-Jun-19 03:24 271 18.3
2019-Jun-19 03:19 267 18.3
2019-Jun-19 03:14 234 18.9
2019-Jun-19 03:09 246 18.9
2019-Jun-19 03:04 199 19.4
2019-Jun-19 02:59 199 19.4
2019-Jun-19 02:54 198 19.4
2019-Jun-19 02:49 199 19.4
2019-Jun-19 02:44 261 20.0
2019-Jun-19 02:39 268 20.0
2019-Jun-19 02:34 291 0 gusting 5 20.0
2019-Jun-19 02:29 265 0 gusting 2 20.0
2019-Jun-19 02:24 268 20.6
2019-Jun-19 02:19 278 21.1
2019-Jun-19 02:14 290 20.6
2019-Jun-19 02:09 289 20.6
2019-Jun-19 02:04 284 21.1
2019-Jun-19 01:59 097 20.6
2019-Jun-19 01:54 099 20.6
2019-Jun-19 01:49 077 20.0
2019-Jun-19 01:44 217 20.0
2019-Jun-19 01:39 147 20.0
2019-Jun-19 01:34 061 20.0
2019-Jun-19 01:29 061 20.6
2019-Jun-19 01:24 132 20.6
2019-Jun-19 01:19 069 20.6
2019-Jun-19 01:14 150 20.6
2019-Jun-19 01:09 119 20.6
2019-Jun-19 01:04 051 0 gusting 4 20.6
2019-Jun-19 00:59 022 20.6
2019-Jun-19 00:54 029 0 gusting 2 20.6
2019-Jun-19 00:49 031 0 gusting 4 20.0
2019-Jun-19 00:44 053 20.0
2019-Jun-19 00:39 043 20.6
2019-Jun-19 00:34 004 0 gusting 6 20.6
2019-Jun-19 00:29 042 1 gusting 4 20.0
2019-Jun-19 00:24 038 0 gusting 2 20.0
2019-Jun-19 00:19 055 20.6
2019-Jun-19 00:14 055 20.0
2019-Jun-19 00:09 055 20.0
2019-Jun-19 00:04 063 20.0
2019-Jun-18 23:59 327 20.0
2019-Jun-18 23:54 062 20.0
2019-Jun-18 23:49 145 20.6
2019-Jun-18 23:44 149 20.0
2019-Jun-18 23:39 087 20.6
2019-Jun-18 23:34 044 20.0
2019-Jun-18 23:29 345 20.6
2019-Jun-18 23:24 043 20.0
2019-Jun-18 23:19 052 20.6
2019-Jun-18 23:14 353 20.0
2019-Jun-18 23:09 076 20.0
2019-Jun-18 23:04 040 20.0
2019-Jun-18 22:59 167 20.0
2019-Jun-18 22:54 351 20.6
2019-Jun-18 22:49 031 20.0
2019-Jun-18 22:44 063 20.6
2019-Jun-18 22:39 036 1 gusting 6 20.0
2019-Jun-18 22:34 032 20.6
2019-Jun-18 22:29 029 20.6
2019-Jun-18 22:24 028 20.6
2019-Jun-18 22:19 044 0 gusting 4 21.1
2019-Jun-18 22:14 20.6
2019-Jun-18 22:09 049 1 gusting 6 20.6
2019-Jun-18 22:04 103 21.1
2019-Jun-18 21:59 027 2 gusting 10 21.7
2019-Jun-18 21:54 025 0 gusting 6 21.7
2019-Jun-18 21:49 041 0 gusting 4 21.7
2019-Jun-18 21:44 056 0 gusting 4 21.7
2019-Jun-18 21:14 051 0 gusting 6 22.2
2019-Jun-18 21:09 115 22.2
2019-Jun-18 21:04 067 1 gusting 6 22.2
2019-Jun-18 20:59 005 1 gusting 6 22.2
2019-Jun-18 20:54 041 0 gusting 2 22.8
2019-Jun-18 20:49 294 23.3
2019-Jun-18 20:44 221 21.7
2019-Jun-18 20:39 326 1 gusting 4 22.2
2019-Jun-18 20:34 009 0 gusting 4 21.7
2019-Jun-18 20:29 345 22.8
2019-Jun-18 20:24 322 22.2
2019-Jun-18 20:19 322 22.2
2019-Jun-18 20:14 324 22.2
2019-Jun-18 20:09 328 21.7
2019-Jun-18 20:04 206 21.7
2019-Jun-18 19:59 233 21.1
2019-Jun-18 19:54 354 21.7
2019-Jun-18 19:49 045 21.7
2019-Jun-18 19:44 052 22.2
2019-Jun-18 19:39 358 0 gusting 2 22.2
2019-Jun-18 19:34 317 22.2
2019-Jun-18 19:29 070 22.2
2019-Jun-18 19:24 130 21.7
2019-Jun-18 19:19 275 21.1
2019-Jun-18 19:14 270 21.1
2019-Jun-18 19:09 163 21.7
2019-Jun-18 19:04 291 21.7
2019-Jun-18 18:59 296 0 gusting 2 21.1
2019-Jun-18 18:54 284 21.1
2019-Jun-18 18:49 284 21.1
2019-Jun-18 18:44 319 20.6
2019-Jun-18 18:39 318 21.1
2019-Jun-18 18:34 159 19.4
2019-Jun-18 18:29 095 20.6
2019-Jun-18 18:24 120 19.4
2019-Jun-18 18:19 281 18.9
2019-Jun-18 18:14 288 19.4
2019-Jun-18 18:09 313 20.0
2019-Jun-18 18:04 336 20.0
2019-Jun-18 17:59 282 18.9
2019-Jun-18 17:54 288 18.9
2019-Jun-18 17:49 287 18.3
2019-Jun-18 17:44 281 18.9
2019-Jun-18 17:39 281 18.9
2019-Jun-18 17:34 281 18.9
2019-Jun-18 17:29 281 18.3
2019-Jun-18 17:24 281 18.3
2019-Jun-18 17:19 281 17.8
2019-Jun-18 17:14 281 17.8
2019-Jun-18 17:09 281 18.3
2019-Jun-18 17:04 281 18.3